Time;durP1;ratioP1;P1;durP2;ratioP2;P2;SDS_P1;SDS_P2;PMS_P1;PMS_P2;Temp;Humidity;BMP_temperature;BMP_pressure;BME280_temperature;BME280_humidity;BME280_pressure;Samples;Min_cycle;Max_cycle;Signal;HPM_P1;HPM_P2
2021/01/09 00:01:57;;;;;;;20.93;7.30;;;2.70;93.40;;;;;;4981909;28;20038;-92
2021/01/09 00:04:23;;;;;;;19.03;7.43;;;2.70;93.40;;;;;;4982174;28;20030;-92
2021/01/09 00:06:50;;;;;;;17.93;7.03;;;2.60;93.40;;;;;;4982841;28;20045;-92
2021/01/09 00:09:15;;;;;;;22.53;7.17;;;2.60;93.40;;;;;;4983295;28;20431;-92
2021/01/09 00:11:41;;;;;;;17.80;7.07;;;2.60;93.40;;;;;;4983446;28;20022;-91
2021/01/09 00:14:06;;;;;;;19.00;7.13;;;2.60;93.40;;;;;;4982962;28;20032;-92
2021/01/09 00:16:32;;;;;;;18.73;6.83;;;2.60;93.40;;;;;;4983311;28;20464;-91
2021/01/09 00:18:58;;;;;;;16.30;6.90;;;2.60;93.40;;;;;;4982549;28;20034;-91
2021/01/09 00:21:23;;;;;;;16.90;6.63;;;2.60;93.40;;;;;;4983551;28;20030;-91
2021/01/09 00:23:49;;;;;;;18.10;6.90;;;2.70;93.40;;;;;;4983487;28;20044;-92
2021/01/09 00:26:14;;;;;;;16.30;7.07;;;2.70;93.40;;;;;;4983469;28;20559;-92
2021/01/09 00:28:40;;;;;;;16.20;6.83;;;2.70;93.40;;;;;;4983235;28;20542;-91
2021/01/09 00:31:06;;;;;;;18.07;6.97;;;2.60;93.30;;;;;;4983292;28;20026;-91
2021/01/09 00:33:33;;;;;;;17.00;7.13;;;2.60;93.40;;;;;;4982366;28;20023;-92
2021/01/09 00:35:59;;;;;;;16.93;6.20;;;2.60;93.40;;;;;;4981771;28;20392;-92
2021/01/09 00:38:25;;;;;;;20.33;6.90;;;2.60;93.40;;;;;;4981212;28;20022;-92
2021/01/09 00:40:50;;;;;;;17.93;6.73;;;2.60;93.40;;;;;;4981076;28;20492;-92
2021/01/09 00:43:16;;;;;;;17.20;6.63;;;2.60;93.40;;;;;;4981248;28;20047;-91
2021/01/09 00:45:42;;;;;;;17.53;6.63;;;2.60;93.40;;;;;;4981137;28;20054;-92
2021/01/09 00:48:07;;;;;;;18.63;7.10;;;2.60;93.40;;;;;;4980111;28;20456;-92
2021/01/09 00:50:33;;;;;;;17.83;6.90;;;2.70;93.40;;;;;;4980970;28;20030;-92
2021/01/09 00:52:59;;;;;;;16.27;6.10;;;2.60;93.30;;;;;;4980612;28;20054;-92
2021/01/09 00:55:24;;;;;;;17.67;6.23;;;2.60;93.20;;;;;;4981061;28;20030;-92
2021/01/09 00:57:50;;;;;;;17.17;6.40;;;2.60;93.30;;;;;;4981192;28;20029;-92
2021/01/09 01:00:16;;;;;;;16.63;6.37;;;2.70;93.30;;;;;;4981161;28;20022;-92
2021/01/09 01:02:41;;;;;;;16.10;5.93;;;2.70;93.20;;;;;;4980479;28;20027;-92
2021/01/09 01:05:07;;;;;;;16.53;6.30;;;2.70;93.30;;;;;;4980812;28;20034;-91
2021/01/09 01:07:35;;;;;;;14.87;6.30;;;2.70;93.30;;;;;;4981240;28;20042;-92
2021/01/09 01:10:02;;;;;;;19.07;5.70;;;2.70;93.30;;;;;;4980475;28;20026;-91
2021/01/09 01:12:28;;;;;;;18.13;6.57;;;2.70;93.20;;;;;;4980228;28;20188;-92
2021/01/09 01:14:54;;;;;;;17.37;6.20;;;2.70;93.20;;;;;;4980008;28;20482;-92
2021/01/09 01:17:19;;;;;;;17.17;5.97;;;2.70;93.20;;;;;;4980732;28;20022;-92
2021/01/09 01:19:45;;;;;;;17.03;6.27;;;2.60;93.50;;;;;;4980336;28;20480;-91
2021/01/09 01:22:10;;;;;;;15.90;5.77;;;2.70;93.30;;;;;;4980350;28;20049;-92
2021/01/09 01:24:37;;;;;;;18.07;6.77;;;2.60;93.20;;;;;;4980424;28;20432;-93
2021/01/09 01:27:03;;;;;;;15.20;6.30;;;2.70;93.30;;;;;;4981004;28;20038;-92
2021/01/09 01:29:28;;;;;;;19.23;6.70;;;2.60;93.20;;;;;;4980542;28;20396;-92
2021/01/09 01:31:57;;;;;;;14.73;5.77;;;2.70;93.30;;;;;;4981435;28;20030;-92
2021/01/09 01:34:23;;;;;;;15.10;5.57;;;2.70;93.20;;;;;;4980075;28;20026;-91
2021/01/09 01:36:48;;;;;;;16.47;6.20;;;2.70;93.20;;;;;;4980272;28;20029;-92
2021/01/09 01:39:14;;;;;;;14.53;6.30;;;2.70;93.10;;;;;;4979532;28;20114;-92
2021/01/09 01:41:40;;;;;;;15.27;5.70;;;2.70;93.10;;;;;;4980386;28;20026;-92
2021/01/09 01:44:05;;;;;;;18.97;6.60;;;2.70;93.10;;;;;;4979916;28;20050;-91
2021/01/09 01:46:31;;;;;;;16.83;6.60;;;2.70;93.00;;;;;;4980044;28;20030;-92
2021/01/09 01:48:57;;;;;;;17.33;7.57;;;2.60;92.90;;;;;;4997325;28;20030;-92
2021/01/09 01:51:22;;;;;;;15.80;7.03;;;2.70;93.10;;;;;;4980381;28;20121;-92
2021/01/09 01:53:49;;;;;;;17.07;7.27;;;2.70;93.10;;;;;;4997420;28;20039;-92
2021/01/09 01:56:15;;;;;;;16.87;6.63;;;2.70;93.10;;;;;;4988444;28;20077;-92
2021/01/09 01:58:40;;;;;;;16.97;7.03;;;2.60;93.10;;;;;;4979987;28;20472;-92
2021/01/09 02:01:09;;;;;;;17.83;7.57;;;2.60;93.10;;;;;;4979204;28;20030;-92
2021/01/09 02:03:35;;;;;;;18.63;8.13;;;2.60;93.10;;;;;;4978987;28;20066;-92
2021/01/09 02:06:03;;;;;;;19.30;7.63;;;2.60;93.10;;;;;;4979529;28;20030;-91
2021/01/09 02:08:35;;;;;;;17.17;7.20;;;2.60;93.10;;;;;;4979369;28;20027;-92
2021/01/09 02:11:06;;;;;;;18.30;8.17;;;2.60;93.20;;;;;;4978901;28;20034;-92
2021/01/09 02:13:49;;;;;;;19.57;8.07;;;2.50;93.20;;;;;;4980850;28;20026;-92
2021/01/09 02:16:16;;;;;;;19.00;8.33;;;2.50;93.20;;;;;;4981017;28;20395;-92
2021/01/09 02:18:43;;;;;;;18.53;7.90;;;2.50;93.30;;;;;;4979069;28;20038;-91
2021/01/09 02:21:27;;;;;;;18.87;8.23;;;2.50;93.30;;;;;;4979086;28;20034;-92
2021/01/09 02:23:53;;;;;;;18.70;7.57;;;2.50;93.30;;;;;;4979248;28;20392;-91
2021/01/09 02:26:19;;;;;;;19.37;9.00;;;2.50;93.40;;;;;;4979015;28;20031;-91
2021/01/09 02:28:44;;;;;;;18.87;8.13;;;2.50;93.40;;;;;;4978407;28;20038;-92
2021/01/09 02:31:12;;;;;;;21.13;7.87;;;2.50;93.40;;;;;;4978903;28;20041;-92
2021/01/09 02:33:40;;;;;;;22.77;8.40;;;2.40;93.40;;;;;;4979357;28;20037;-92
2021/01/09 02:36:07;;;;;;;18.50;7.70;;;2.40;93.30;;;;;;4978918;28;20033;-92
2021/01/09 02:38:32;;;;;;;21.30;8.27;;;2.40;93.40;;;;;;4979095;28;20058;-92
2021/01/09 02:41:01;;;;;;;18.70;8.33;;;2.40;93.40;;;;;;4979020;28;20392;-91
2021/01/09 02:43:27;;;;;;;21.00;8.30;;;2.40;93.40;;;;;;4978699;28;20054;-92
2021/01/09 02:45:52;;;;;;;18.23;7.70;;;2.40;93.40;;;;;;4978862;28;20373;-91
2021/01/09 02:48:18;;;;;;;18.73;7.97;;;2.40;93.40;;;;;;4978978;28;20034;-91
2021/01/09 02:50:44;;;;;;;19.27;8.20;;;2.40;93.40;;;;;;4978477;28;20035;-92
2021/01/09 02:53:09;;;;;;;19.20;8.27;;;2.40;93.40;;;;;;4980324;28;20213;-92
2021/01/09 02:55:35;;;;;;;18.17;7.93;;;2.40;93.50;;;;;;4979886;28;20022;-92
2021/01/09 02:58:00;;;;;;;20.57;8.80;;;2.40;93.50;;;;;;4979927;28;20033;-93
2021/01/09 03:00:26;;;;;;;21.87;9.27;;;2.40;93.50;;;;;;4980468;28;20037;-92
2021/01/09 03:02:51;;;;;;;18.00;8.60;;;2.30;93.50;;;;;;4981612;28;20464;-92
2021/01/09 03:05:17;;;;;;;19.63;8.50;;;2.30;93.50;;;;;;4979585;28;20034;-92
2021/01/09 03:07:42;;;;;;;20.73;9.07;;;2.30;93.60;;;;;;4980120;28;20030;-93
2021/01/09 03:10:08;;;;;;;20.87;9.03;;;2.30;93.60;;;;;;4979609;28;20096;-92
2021/01/09 03:12:34;;;;;;;21.47;8.80;;;2.30;93.60;;;;;;4991071;28;20054;-92
2021/01/09 03:14:59;;;;;;;20.43;8.50;;;2.20;93.60;;;;;;5002758;28;20029;-92
2021/01/09 03:17:25;;;;;;;20.37;9.10;;;2.20;93.60;;;;;;5002722;28;20069;-92
2021/01/09 03:19:51;;;;;;;21.13;9.13;;;2.20;93.70;;;;;;4996312;28;20379;-92
2021/01/09 03:22:16;;;;;;;20.60;9.20;;;2.20;93.60;;;;;;4983461;28;20415;-92
2021/01/09 03:24:42;;;;;;;20.57;9.23;;;2.30;93.70;;;;;;4983772;28;20033;-92
2021/01/09 03:27:08;;;;;;;18.53;8.17;;;2.30;93.60;;;;;;4983650;28;20038;-92
2021/01/09 03:29:33;;;;;;;20.07;8.57;;;2.30;93.60;;;;;;4984041;28;20429;-93
2021/01/09 03:31:59;;;;;;;18.90;8.43;;;2.20;93.60;;;;;;4983085;28;20106;-92
2021/01/09 03:34:24;;;;;;;21.40;9.27;;;2.20;93.60;;;;;;4983748;28;20034;-92
2021/01/09 03:36:50;;;;;;;19.63;8.60;;;2.20;93.60;;;;;;4983882;28;20026;-92
2021/01/09 03:39:15;;;;;;;19.77;9.53;;;2.20;93.60;;;;;;4983592;28;20125;-92
2021/01/09 03:41:41;;;;;;;20.87;10.00;;;2.20;93.60;;;;;;4982844;28;20464;-92
2021/01/09 03:44:06;;;;;;;21.20;9.37;;;2.20;93.60;;;;;;4982779;28;20046;-92
2021/01/09 03:46:32;;;;;;;20.50;9.83;;;2.10;93.60;;;;;;4983269;28;20026;-92
2021/01/09 03:48:57;;;;;;;23.03;9.60;;;2.10;93.70;;;;;;4984083;28;20034;-92
2021/01/09 03:51:23;;;;;;;23.97;10.63;;;2.20;93.80;;;;;;4983953;28;20125;-92
2021/01/09 03:53:48;;;;;;;23.10;10.67;;;2.10;93.70;;;;;;4984474;28;20026;-92
2021/01/09 03:56:14;;;;;;;23.30;11.03;;;2.10;93.70;;;;;;4983058;28;20026;-92
2021/01/09 03:58:41;;;;;;;23.87;11.40;;;2.20;93.80;;;;;;4983049;28;20108;-92
2021/01/09 04:01:07;;;;;;;26.07;11.07;;;2.20;93.70;;;;;;4982632;28;20018;-91
2021/01/09 04:03:32;;;;;;;22.20;11.60;;;2.20;93.70;;;;;;4982518;28;20038;-92
2021/01/09 04:05:58;;;;;;;22.90;11.20;;;2.20;93.70;;;;;;4983190;28;20034;-92
2021/01/09 04:08:23;;;;;;;24.57;11.40;;;2.20;93.60;;;;;;4982562;28;20089;-92
2021/01/09 04:10:49;;;;;;;24.03;11.37;;;2.20;93.60;;;;;;4982702;28;20081;-93
2021/01/09 04:13:15;;;;;;;23.67;10.83;;;2.20;93.60;;;;;;4983009;28;20053;-92
2021/01/09 04:15:40;;;;;;;23.97;11.23;;;2.20;93.60;;;;;;4982678;28;20034;-92
2021/01/09 04:18:06;;;;;;;22.33;10.67;;;2.20;93.60;;;;;;4982862;28;20022;-92
2021/01/09 04:20:32;;;;;;;25.60;12.17;;;2.20;93.60;;;;;;4983489;28;20172;-92
2021/01/09 04:22:58;;;;;;;23.97;10.60;;;2.20;93.50;;;;;;4999489;28;20030;-92
2021/01/09 04:25:23;;;;;;;22.53;9.83;;;2.20;93.50;;;;;;5001020;28;20033;-92
2021/01/09 04:27:49;;;;;;;23.87;11.00;;;2.20;93.50;;;;;;4993615;28;20040;-92
2021/01/09 04:30:15;;;;;;;21.63;10.33;;;2.20;93.40;;;;;;4983812;28;20022;-92
2021/01/09 04:32:41;;;;;;;24.73;11.07;;;2.20;93.40;;;;;;4982182;28;20476;-92
2021/01/09 04:35:07;;;;;;;24.07;11.00;;;2.20;93.50;;;;;;4982379;28;20021;-92
2021/01/09 04:37:36;;;;;;;22.20;10.23;;;2.30;93.40;;;;;;4989454;28;20023;-92
2021/01/09 04:40:05;;;;;;;23.57;10.17;;;2.20;93.40;;;;;;4990163;28;20022;-93
2021/01/09 04:42:31;;;;;;;23.00;10.75;;;2.30;93.30;;;;;;4990239;28;20037;-92
2021/01/09 04:44:57;;;;;;;20.73;10.57;;;2.20;93.40;;;;;;4990604;28;20570;-92
2021/01/09 04:47:24;;;;;;;22.37;10.33;;;2.20;93.40;;;;;;4985573;28;20026;-93
2021/01/09 04:49:50;;;;;;;21.43;9.23;;;2.20;93.40;;;;;;4983712;28;20034;-92
2021/01/09 04:52:16;;;;;;;25.37;10.53;;;2.30;93.40;;;;;;4981786;28;20057;-94
2021/01/09 04:54:44;;;;;;;21.83;10.10;;;2.30;93.30;;;;;;4983136;28;20511;-92
2021/01/09 04:57:09;;;;;;;22.00;10.27;;;2.30;93.30;;;;;;4981870;28;20026;-92
2021/01/09 04:59:37;;;;;;;22.27;10.37;;;2.30;93.30;;;;;;4982377;28;20090;-92
2021/01/09 05:02:04;;;;;;;21.30;9.87;;;2.30;93.30;;;;;;4982081;28;20062;-92
2021/01/09 05:04:30;;;;;;;20.03;9.67;;;2.30;93.30;;;;;;4981525;28;20023;-92
2021/01/09 05:06:55;;;;;;;21.83;10.40;;;2.30;93.20;;;;;;4980981;28;20022;-92
2021/01/09 05:09:21;;;;;;;20.47;9.93;;;2.20;93.20;;;;;;4981596;28;20121;-92
2021/01/09 05:11:46;;;;;;;20.50;9.67;;;2.20;93.20;;;;;;4980958;28;20026;-92
2021/01/09 05:14:12;;;;;;;22.63;10.47;;;2.20;93.10;;;;;;4981482;28;20125;-92
2021/01/09 05:16:39;;;;;;;20.90;10.13;;;2.30;93.20;;;;;;4981685;28;20125;-92
2021/01/09 05:19:06;;;;;;;21.67;10.43;;;2.20;93.20;;;;;;4982037;28;20053;-92
2021/01/09 05:21:37;;;;;;;24.70;10.07;;;2.20;93.20;;;;;;4981536;28;20080;-92
2021/01/09 05:24:08;;;;;;;20.80;9.27;;;2.20;93.20;;;;;;4981760;28;20519;-92
2021/01/09 05:26:36;;;;;;;21.33;9.47;;;2.20;93.20;;;;;;4981856;28;20049;-92
2021/01/09 05:29:03;;;;;;;21.93;10.53;;;2.20;93.20;;;;;;4981601;28;20373;-92
2021/01/09 05:31:31;;;;;;;20.97;9.90;;;2.10;93.20;;;;;;4991897;28;20054;-91
2021/01/09 05:33:57;;;;;;;20.63;9.27;;;2.10;93.20;;;;;;4999760;28;20046;-92
2021/01/09 05:36:24;;;;;;;20.97;9.43;;;2.10;93.30;;;;;;4999762;28;20037;-92
2021/01/09 05:38:50;;;;;;;21.70;9.33;;;2.10;93.30;;;;;;4991007;28;20030;-92
2021/01/09 05:41:21;;;;;;;22.70;9.63;;;2.00;93.30;;;;;;4980551;28;20129;-92
2021/01/09 05:43:57;;;;;;;19.73;9.37;;;2.10;93.30;;;;;;4979625;28;20108;-92
2021/01/09 05:46:23;;;;;;;21.27;10.07;;;2.00;93.30;;;;;;4980313;28;20038;-92
2021/01/09 05:48:49;;;;;;;21.73;9.47;;;2.00;93.30;;;;;;4979946;28;20041;-92
2021/01/09 05:51:18;;;;;;;21.60;9.47;;;2.00;93.30;;;;;;4979468;28;20038;-92
2021/01/09 05:53:46;;;;;;;21.73;9.68;;;2.00;93.30;;;;;;4979753;28;20027;-92
2021/01/09 05:56:17;;;;;;;25.57;10.93;;;2.00;93.30;;;;;;4980069;28;20030;-91
2021/01/09 05:58:42;;;;;;;21.20;9.17;;;2.00;93.60;;;;;;4979718;28;20429;-92
2021/01/09 06:01:13;;;;;;;20.40;9.47;;;1.90;93.30;;;;;;4979450;28;20124;-92
2021/01/09 06:03:44;;;;;;;21.20;10.27;;;2.00;93.30;;;;;;4979785;28;20042;-92
2021/01/09 06:06:25;;;;;;;20.73;9.27;;;1.90;93.30;;;;;;4979276;28;20480;-91
2021/01/09 06:08:58;;;;;;;19.80;8.93;;;1.90;93.30;;;;;;4979553;28;20030;-92
2021/01/09 06:11:35;;;;;;;20.77;9.47;;;1.90;93.40;;;;;;4979840;28;20122;-92
2021/01/09 06:14:06;;;;;;;20.17;9.43;;;1.90;93.30;;;;;;4979525;28;20503;-92
2021/01/09 06:16:33;;;;;;;21.67;9.67;;;1.90;93.30;;;;;;4979600;28;20030;-91
2021/01/09 06:18:59;;;;;;;20.30;8.97;;;2.00;93.40;;;;;;4979216;28;20022;-92
2021/01/09 06:21:27;;;;;;;20.43;9.47;;;2.00;93.30;;;;;;4979113;28;20125;-92
2021/01/09 06:23:54;;;;;;;20.60;10.10;;;2.00;93.30;;;;;;4979137;28;20029;-92
2021/01/09 06:26:24;;;;;;;20.30;8.67;;;2.00;93.20;;;;;;4979415;28;20037;-92
2021/01/09 06:28:58;;;;;;;20.23;9.23;;;2.00;93.20;;;;;;4979042;28;20038;-91
2021/01/09 06:31:26;;;;;;;21.53;9.70;;;2.00;93.10;;;;;;4979665;28;20026;-93
2021/01/09 06:33:54;;;;;;;20.73;9.02;;;2.00;93.20;;;;;;4978675;28;20026;-91
2021/01/09 06:36:21;;;;;;;20.87;9.63;;;2.00;93.20;;;;;;4983317;28;20030;-91
2021/01/09 06:38:51;;;;;;;21.43;9.93;;;2.00;93.10;;;;;;4998207;28;20022;-92
2021/01/09 06:41:18;;;;;;;23.38;10.38;;;2.00;93.20;;;;;;4998130;28;20042;-92
2021/01/09 06:43:46;;;;;;;22.93;9.80;;;1.90;93.20;;;;;;4994855;28;20128;-92
2021/01/09 06:46:25;;;;;;;22.07;10.13;;;1.90;93.20;;;;;;4978851;28;20026;-91
2021/01/09 06:48:51;;;;;;;20.88;10.05;;;1.90;93.30;;;;;;4978829;28;20081;-92
2021/01/09 06:51:32;;;;;;;20.27;9.10;;;1.90;93.30;;;;;;4978732;28;20038;-92
2021/01/09 06:54:20;;;;;;;20.67;9.67;;;1.90;93.20;;;;;;4978463;28;20475;-92
2021/01/09 06:56:47;;;;;;;21.03;9.13;;;1.90;93.30;;;;;;4979210;28;20034;-92
2021/01/09 06:59:48;;;;;;;22.47;10.40;;;1.90;93.30;;;;;;4978602;28;20027;-92
2021/01/09 07:02:28;;;;;;;21.20;9.83;;;1.90;93.30;;;;;;4897450;29;20029;-92
2021/01/09 07:04:58;;;;;;;19.63;9.00;;;1.90;93.20;;;;;;4967905;28;20034;-92
2021/01/09 07:07:28;;;;;;;21.13;9.37;;;1.90;93.20;;;;;;4978692;28;20026;-92
2021/01/09 07:10:14;;;;;;;21.50;10.30;;;1.90;93.20;;;;;;4979137;28;20499;-91
2021/01/09 07:12:46;;;;;;;21.40;9.90;;;1.90;93.20;;;;;;4978239;28;20076;-91
2021/01/09 07:15:13;;;;;;;22.97;10.00;;;1.90;93.20;;;;;;4978431;28;20026;-92
2021/01/09 07:17:40;;;;;;;22.10;10.33;;;1.90;93.20;;;;;;4981677;28;20030;-91
2021/01/09 07:20:11;;;;;;;19.97;9.20;;;1.90;93.20;;;;;;4973706;28;20070;-91
2021/01/09 07:22:42;;;;;;;21.63;9.97;;;1.80;93.20;;;;;;4978449;28;20031;-91
2021/01/09 07:25:11;;;;;;;22.83;10.80;;;1.80;93.20;;;;;;4978520;28;20022;-92
2021/01/09 07:27:57;;;;;;;23.23;10.63;;;1.80;93.20;;;;;;4978611;28;20026;-92
2021/01/09 07:30:24;;;;;;;24.17;10.37;;;1.80;93.20;;;;;;4978383;28;20026;-92
2021/01/09 07:32:51;;;;;;;23.90;10.60;;;1.80;93.20;;;;;;4977591;28;20023;-91
2021/01/09 07:35:22;;;;;;;24.93;12.17;;;1.80;93.50;;;;;;4979058;28;20034;-92
2021/01/09 07:37:59;;;;;;;26.37;11.93;;;1.80;93.20;;;;;;4978079;28;20121;-91
2021/01/09 07:40:32;;;;;;;22.83;11.03;;;1.80;93.20;;;;;;4977859;28;20026;-92
2021/01/09 07:42:57;;;;;;;24.27;11.10;;;1.80;93.30;;;;;;4977338;28;20046;-92
2021/01/09 07:45:30;;;;;;;21.30;10.27;;;1.80;93.20;;;;;;4977729;28;20038;-92
2021/01/09 07:47:57;;;;;;;23.27;11.20;;;1.80;93.20;;;;;;4977614;28;20399;-91
2021/01/09 07:50:22;;;;;;;24.90;10.53;;;1.80;93.20;;;;;;4976906;28;20037;-92
2021/01/09 07:53:06;;;;;;;23.20;11.27;;;1.80;93.20;;;;;;4977469;28;20113;-92
2021/01/09 07:55:45;;;;;;;22.03;10.93;;;1.80;93.20;;;;;;4973135;28;20495;-92
2021/01/09 07:58:12;;;;;;;;;;;1.80;93.20;;;;;;4978986;28;20572;-91
2021/01/09 08:00:39;;;;;;;25.03;11.33;;;1.80;93.20;;;;;;4980642;28;19956;-91
2021/01/09 08:03:06;;;;;;;25.13;10.47;;;1.80;93.20;;;;;;4980906;28;20030;-91
2021/01/09 08:05:31;;;;;;;23.77;10.77;;;1.80;93.20;;;;;;4980938;28;20051;-91
2021/01/09 08:07:57;;;;;;;23.60;10.33;;;1.90;93.20;;;;;;4981425;28;20031;-91
2021/01/09 08:10:27;;;;;;;22.37;10.50;;;1.80;93.10;;;;;;4981047;28;20057;-91
2021/01/09 08:13:05;;;;;;;21.80;10.43;;;1.90;93.20;;;;;;4980162;28;20503;-90
2021/01/09 08:15:32;;;;;;;22.73;10.73;;;1.90;93.20;;;;;;4980478;28;20077;-91
2021/01/09 08:18:04;;;;;;;22.43;10.77;;;1.90;93.10;;;;;;4980189;28;20094;-91
2021/01/09 08:20:29;;;;;;;22.20;9.90;;;1.90;93.10;;;;;;4980934;28;20026;-91
2021/01/09 08:23:00;;;;;;;22.57;11.20;;;1.80;93.10;;;;;;4981481;28;20117;-92
2021/01/09 08:25:30;;;;;;;21.83;10.10;;;1.90;93.20;;;;;;4981729;28;20026;-91
2021/01/09 08:27:57;;;;;;;21.40;10.10;;;1.80;93.10;;;;;;4990416;28;20031;-91
2021/01/09 08:30:31;;;;;;;24.47;10.57;;;1.80;93.10;;;;;;4978868;28;20026;-91
2021/01/09 08:33:08;;;;;;;21.93;10.97;;;1.80;93.20;;;;;;4980995;28;20037;-91
2021/01/09 08:35:36;;;;;;;22.67;10.30;;;1.80;93.20;;;;;;4979471;28;20018;-90
2021/01/09 08:38:03;;;;;;;21.97;10.83;;;1.80;93.20;;;;;;4979397;28;20023;-92
2021/01/09 08:40:31;;;;;;;23.17;10.53;;;1.70;93.30;;;;;;4978590;28;20456;-90
2021/01/09 08:43:01;;;;;;;21.07;10.50;;;1.70;93.30;;;;;;4977288;28;20023;-91
2021/01/09 08:45:45;;;;;;;26.17;13.03;;;1.80;93.20;;;;;;4976035;28;20030;-90
2021/01/09 08:48:18;;;;;;;22.73;10.07;;;1.80;93.20;;;;;;4979021;28;20038;-91
2021/01/09 08:51:07;;;;;;;23.00;12.03;;;1.80;93.20;;;;;;4978467;28;20039;-91
2021/01/09 08:54:05;;;;;;;25.13;11.03;;;1.80;93.20;;;;;;4971037;28;20030;-92
2021/01/09 08:56:32;;;;;;;23.97;10.47;;;1.80;93.20;;;;;;4968053;28;20109;-91
2021/01/09 08:59:03;;;;;;;22.27;10.63;;;1.80;93.30;;;;;;4973093;28;20112;-91
2021/01/09 09:01:41;;;;;;;24.57;11.20;;;1.80;93.30;;;;;;4978688;28;20058;-91
2021/01/09 09:04:08;;;;;;;24.23;11.07;;;1.80;93.30;;;;;;4978691;28;20038;-90
2021/01/09 09:06:41;;;;;;;23.17;10.77;;;1.90;93.30;;;;;;4978275;28;20395;-91
2021/01/09 09:09:08;;;;;;;23.33;10.73;;;1.90;93.20;;;;;;4977731;28;20117;-91
2021/01/09 09:11:34;;;;;;;22.37;11.23;;;1.90;93.20;;;;;;4978295;28;20034;-91
2021/01/09 09:14:09;;;;;;;23.00;11.17;;;1.90;93.10;;;;;;4978100;28;20023;-92
2021/01/09 09:16:39;;;;;;;24.63;10.13;;;1.90;93.10;;;;;;4983765;28;20026;-92
2021/01/09 09:19:14;;;;;;;22.70;10.03;;;1.90;93.10;;;;;;4993483;28;20022;-91
2021/01/09 09:21:48;;;;;;;23.13;11.23;;;1.90;93.10;;;;;;4978032;28;20113;-91
2021/01/09 09:24:16;;;;;;;21.90;9.90;;;2.00;93.20;;;;;;4977926;28;20082;-91
2021/01/09 09:26:43;;;;;;;21.33;9.63;;;1.90;93.10;;;;;;4978110;28;20058;-91
2021/01/09 09:29:09;;;;;;;21.83;10.60;;;1.90;93.10;;;;;;4978180;28;20085;-91
2021/01/09 09:31:39;;;;;;;23.63;11.03;;;2.00;93.10;;;;;;4977201;28;20046;-92
2021/01/09 09:34:10;;;;;;;20.63;9.67;;;2.00;93.10;;;;;;4977877;28;20023;-90
2021/01/09 09:36:57;;;;;;;23.40;11.13;;;2.00;93.10;;;;;;4958713;28;20105;-91
2021/01/09 09:39:24;;;;;;;24.10;11.00;;;2.00;93.10;;;;;;4958991;28;20022;-92
2021/01/09 09:41:51;;;;;;;24.63;11.50;;;2.00;93.40;;;;;;4978069;28;20103;-92
2021/01/09 09:44:17;;;;;;;23.20;11.07;;;2.00;93.10;;;;;;4980348;28;20042;-91
2021/01/09 09:46:43;;;;;;;24.27;11.43;;;2.00;93.10;;;;;;4982460;28;20045;-91
2021/01/09 09:49:10;;;;;;;24.43;11.10;;;2.00;93.10;;;;;;4977891;28;20038;-91
2021/01/09 09:51:36;;;;;;;24.63;11.33;;;2.00;93.10;;;;;;4978084;28;20477;-92
2021/01/09 09:54:03;;;;;;;23.83;10.63;;;2.10;93.10;;;;;;4977572;28;20083;-91
2021/01/09 09:56:42;;;;;;;24.93;10.07;;;2.10;93.10;;;;;;4979571;28;20023;-91
2021/01/09 09:59:10;;;;;;;25.25;12.05;;;2.10;93.00;;;;;;4979775;28;20026;-91
2021/01/09 10:01:36;;;;;;;25.47;11.87;;;2.10;93.00;;;;;;4988535;28;20038;-91
2021/01/09 10:04:14;;;;;;;25.00;12.03;;;2.10;93.00;;;;;;4980131;28;20455;-91
2021/01/09 10:06:40;;;;;;;27.00;12.73;;;2.10;93.30;;;;;;4980034;28;20512;-91
2021/01/09 10:09:11;;;;;;;24.53;12.23;;;2.10;93.00;;;;;;4981584;28;20109;-91
2021/01/09 10:11:37;;;;;;;26.90;12.53;;;2.10;93.00;;;;;;4991519;28;20043;-92
2021/01/09 10:14:05;;;;;;;26.17;12.63;;;2.10;93.00;;;;;;4982101;28;20062;-91
2021/01/09 10:16:32;;;;;;;27.83;12.80;;;2.20;93.10;;;;;;4978615;28;20480;-92
2021/01/09 10:18:58;;;;;;;27.40;12.27;;;2.20;93.00;;;;;;4978704;28;20043;-91
2021/01/09 10:21:28;;;;;;;25.90;12.50;;;2.20;93.10;;;;;;4978672;28;20097;-92
2021/01/09 10:23:56;;;;;;;28.27;13.60;;;2.20;93.00;;;;;;4974503;28;20062;-91
2021/01/09 10:26:32;;;;;;;25.90;12.03;;;2.20;93.00;;;;;;4967848;28;20022;-90
2021/01/09 10:29:00;;;;;;;26.97;12.40;;;2.20;93.10;;;;;;4978412;28;20026;-90
2021/01/09 10:31:29;;;;;;;29.93;14.40;;;2.20;93.20;;;;;;4970586;28;20042;-91
2021/01/09 10:34:00;;;;;;;27.02;13.13;;;2.20;93.20;;;;;;4977575;28;20026;-91
2021/01/09 10:36:28;;;;;;;26.53;11.90;;;2.20;93.20;;;;;;4974515;28;20053;-91
2021/01/09 10:38:54;;;;;;;28.33;12.77;;;2.20;93.10;;;;;;4966252;28;20058;-91
2021/01/09 10:41:19;;;;;;;26.83;12.23;;;2.20;93.20;;;;;;4969174;28;20030;-90
2021/01/09 10:43:45;;;;;;;28.93;12.83;;;2.30;93.10;;;;;;4977506;28;20511;-90
2021/01/09 10:46:11;;;;;;;29.07;12.50;;;2.30;93.10;;;;;;4974487;28;20038;-91
2021/01/09 10:48:36;;;;;;;25.07;12.27;;;2.30;93.10;;;;;;4961973;28;20118;-91
2021/01/09 10:51:02;;;;;;;26.43;13.67;;;2.30;93.00;;;;;;4973586;28;20041;-91
2021/01/09 10:53:27;;;;;;;29.30;14.27;;;2.30;93.20;;;;;;4978122;28;20034;-90
2021/01/09 10:55:56;;;;;;;34.63;18.00;;;2.30;93.20;;;;;;4974076;28;20056;-91
2021/01/09 10:58:22;;;;;;;31.48;15.35;;;2.30;93.10;;;;;;4960740;28;20055;-92
2021/01/09 11:00:48;;;;;;;28.23;13.53;;;2.30;93.10;;;;;;4971234;28;20102;-90
2021/01/09 11:03:14;;;;;;;26.87;13.70;;;2.30;93.00;;;;;;4961079;28;20535;-91
2021/01/09 11:05:41;;;;;;;26.53;12.93;;;2.30;93.10;;;;;;4978054;28;20038;-91
2021/01/09 11:08:07;;;;;;;26.73;12.23;;;2.30;93.10;;;;;;4977534;28;20034;-91
2021/01/09 11:10:32;;;;;;;30.23;13.70;;;2.40;93.10;;;;;;4981360;28;20018;-91
2021/01/09 11:12:58;;;;;;;27.47;14.17;;;2.40;93.10;;;;;;4986720;28;20046;-91
2021/01/09 11:15:23;;;;;;;26.47;13.90;;;2.40;93.10;;;;;;4977984;28;20037;-91
2021/01/09 11:17:49;;;;;;;27.13;12.97;;;2.40;93.10;;;;;;4977712;28;20026;-91
2021/01/09 11:20:15;;;;;;;28.37;14.17;;;2.40;93.20;;;;;;4977485;28;20081;-91
2021/01/09 11:22:41;;;;;;;27.33;13.03;;;2.40;93.10;;;;;;4977074;28;20496;-92
2021/01/09 11:25:07;;;;;;;29.73;13.20;;;2.40;93.20;;;;;;4976785;28;20089;-90
2021/01/09 11:27:32;;;;;;;26.27;13.83;;;2.40;93.10;;;;;;4976528;28;20031;-91
2021/01/09 11:29:58;;;;;;;29.30;13.33;;;2.40;93.20;;;;;;4976708;28;20030;-91
2021/01/09 11:32:23;;;;;;;25.23;12.87;;;2.40;93.10;;;;;;4976231;28;20078;-91
2021/01/09 11:34:50;;;;;;;26.73;12.87;;;2.40;93.30;;;;;;4980837;28;20018;-92
2021/01/09 11:37:15;;;;;;;22.43;11.83;;;2.40;93.30;;;;;;4981247;28;20025;-90
2021/01/09 11:39:41;;;;;;;25.00;12.33;;;2.50;93.20;;;;;;4981947;28;20030;-91
2021/01/09 11:42:07;;;;;;;23.20;11.63;;;2.50;93.20;;;;;;4981243;28;20022;-91
2021/01/09 11:44:33;;;;;;;24.20;11.90;;;2.50;93.10;;;;;;4981386;28;20058;-91
2021/01/09 11:46:58;;;;;;;29.07;14.17;;;2.50;93.10;;;;;;4981044;28;20084;-92
2021/01/09 11:49:25;;;;;;;24.73;11.93;;;2.50;93.40;;;;;;4980089;28;20030;-91
2021/01/09 11:51:52;;;;;;;24.00;12.10;;;2.40;93.20;;;;;;4981137;28;20499;-93
2021/01/09 11:54:18;;;;;;;23.03;12.73;;;2.40;93.40;;;;;;4979980;28;20031;-92
2021/01/09 11:56:43;;;;;;;24.37;12.23;;;2.40;93.30;;;;;;4979990;28;20026;-91
2021/01/09 11:59:09;;;;;;;23.87;11.53;;;2.40;93.50;;;;;;4980845;28;20030;-92
2021/01/09 12:01:39;;;;;;;21.63;11.00;;;2.50;93.20;;;;;;4981700;28;20042;-91
2021/01/09 12:04:05;;;;;;;25.77;12.10;;;2.50;93.30;;;;;;4980161;28;20104;-91
2021/01/09 12:06:31;;;;;;;22.03;11.30;;;2.50;93.40;;;;;;4979977;28;20026;-92
2021/01/09 12:08:57;;;;;;;22.33;10.90;;;2.50;93.30;;;;;;4979444;28;20571;-91
2021/01/09 12:11:22;;;;;;;23.40;11.63;;;2.50;93.40;;;;;;4979906;28;20034;-91
2021/01/09 12:13:48;;;;;;;23.37;11.30;;;2.50;93.50;;;;;;4980671;28;20030;-91
2021/01/09 12:16:14;;;;;;;22.77;11.60;;;2.50;93.40;;;;;;4980438;28;20077;-92
2021/01/09 12:18:40;;;;;;;22.53;11.87;;;2.50;93.30;;;;;;4980592;28;20054;-91
2021/01/09 12:21:06;;;;;;;23.67;11.80;;;2.40;93.50;;;;;;4980290;28;20030;-91
2021/01/09 12:23:31;;;;;;;24.17;11.40;;;2.40;93.30;;;;;;4980113;28;20030;-92
2021/01/09 12:25:57;;;;;;;21.33;11.50;;;2.40;93.20;;;;;;4980364;28;20031;-93
2021/01/09 12:28:23;;;;;;;24.90;12.40;;;2.40;93.20;;;;;;4980137;28;20034;-92
2021/01/09 12:30:49;;;;;;;23.37;11.87;;;2.40;93.30;;;;;;4979719;28;20440;-92
2021/01/09 12:33:16;;;;;;;23.60;11.60;;;2.40;93.40;;;;;;4980201;28;20036;-92
2021/01/09 12:35:42;;;;;;;26.53;13.40;;;2.40;93.50;;;;;;4980056;28;20022;-93
2021/01/09 12:38:08;;;;;;;27.07;13.50;;;2.40;93.40;;;;;;4979789;28;20554;-92
2021/01/09 12:40:35;;;;;;;26.20;13.37;;;2.40;93.40;;;;;;4979978;28;20066;-93
2021/01/09 12:43:01;;;;;;;27.93;13.33;;;2.40;93.70;;;;;;4982953;28;20053;-92
2021/01/09 12:45:26;;;;;;;29.23;14.40;;;2.40;93.50;;;;;;4999944;28;20029;-92